Terminal Aerodrome Forecast
Issued by NWS Charleston, WV

Home | Current Version | Previous Version | Text Only | Print | Product List | Glossary On
Versions: 1 2 3 4 5 6 7 8 9 10 11 12 13 14 15 16 17 18 19 20 21 22 23 24
745
FTUS41 KRLX 230541
TAFBKW
TAF
KBKW 230541Z 2306/2406 16017G32KT P6SM SCT070
     FM230830 22014G21KT 5SM -SHRA OVC026
      TEMPO 2309/2310 2SM SHRA OVC017
     FM231200 26010G18KT P6SM BKN050
     FM231400 26013G25KT P6SM SCT090
     FM231900 27016G30KT P6SM BKN045
     FM232100 27015G28KT P6SM BKN035
     FM232300 28015G28KT P6SM BKN025
     FM240000 28014G25KT P6SM BKN020=

USA.gov is the U.S. government's official web portal to all federal, state and local government web resources and services.